sensor_id;sensor_type;location;lat;lon;timestamp;P1;durP1;ratioP1;P2;durP2;ratioP2
438;SDS011;206;48.782;9.252;2023-08-12T00:01:54;6.30;;;5.60;;
438;SDS011;206;48.782;9.252;2023-08-12T00:04:19;5.80;;;5.13;;
438;SDS011;206;48.782;9.252;2023-08-12T00:06:45;6.37;;;6.00;;
438;SDS011;206;48.782;9.252;2023-08-12T00:09:11;5.77;;;5.47;;
438;SDS011;206;48.782;9.252;2023-08-12T00:11:37;7.10;;;5.60;;
438;SDS011;206;48.782;9.252;2023-08-12T00:14:03;6.10;;;5.80;;
438;SDS011;206;48.782;9.252;2023-08-12T00:16:29;5.50;;;5.20;;
438;SDS011;206;48.782;9.252;2023-08-12T00:18:55;5.90;;;4.97;;
438;SDS011;206;48.782;9.252;2023-08-12T00:21:20;7.70;;;5.40;;
438;SDS011;206;48.782;9.252;2023-08-12T00:23:46;6.17;;;5.87;;
438;SDS011;206;48.782;9.252;2023-08-12T00:26:14;7.37;;;6.53;;
438;SDS011;206;48.782;9.252;2023-08-12T00:28:40;6.57;;;6.00;;
438;SDS011;206;48.782;9.252;2023-08-12T00:31:06;5.77;;;5.47;;
438;SDS011;206;48.782;9.252;2023-08-12T00:33:31;9.70;;;6.87;;
438;SDS011;206;48.782;9.252;2023-08-12T00:35:57;8.97;;;6.60;;
438;SDS011;206;48.782;9.252;2023-08-12T00:38:22;9.43;;;6.90;;
438;SDS011;206;48.782;9.252;2023-08-12T00:40:48;10.70;;;7.43;;
438;SDS011;206;48.782;9.252;2023-08-12T00:43:13;9.30;;;7.17;;
438;SDS011;206;48.782;9.252;2023-08-12T00:45:40;8.47;;;7.13;;
438;SDS011;206;48.782;9.252;2023-08-12T00:48:05;7.27;;;6.87;;
438;SDS011;206;48.782;9.252;2023-08-12T00:50:33;8.40;;;7.10;;
438;SDS011;206;48.782;9.252;2023-08-12T00:53:00;8.87;;;6.63;;
438;SDS011;206;48.782;9.252;2023-08-12T00:55:26;7.93;;;7.17;;
438;SDS011;206;48.782;9.252;2023-08-12T00:57:51;7.40;;;6.87;;
438;SDS011;206;48.782;9.252;2023-08-12T01:00:17;8.00;;;6.27;;
438;SDS011;206;48.782;9.252;2023-08-12T01:02:46;8.40;;;7.60;;
438;SDS011;206;48.782;9.252;2023-08-12T01:05:13;9.30;;;7.60;;
438;SDS011;206;48.782;9.252;2023-08-12T01:07:40;10.13;;;7.23;;
438;SDS011;206;48.782;9.252;2023-08-12T01:10:06;11.43;;;7.40;;
438;SDS011;206;48.782;9.252;2023-08-12T01:12:36;9.87;;;7.00;;
438;SDS011;206;48.782;9.252;2023-08-12T01:15:17;6.40;;;6.00;;
438;SDS011;206;48.782;9.252;2023-08-12T01:17:50;7.50;;;6.80;;
438;SDS011;206;48.782;9.252;2023-08-12T01:20:18;9.50;;;6.23;;
438;SDS011;206;48.782;9.252;2023-08-12T01:22:52;8.30;;;7.00;;
438;SDS011;206;48.782;9.252;2023-08-12T01:25:39;6.63;;;6.23;;
438;SDS011;206;48.782;9.252;2023-08-12T01:28:05;7.63;;;6.63;;
438;SDS011;206;48.782;9.252;2023-08-12T01:30:32;7.30;;;6.60;;
438;SDS011;206;48.782;9.252;2023-08-12T01:33:16;9.90;;;6.60;;
438;SDS011;206;48.782;9.252;2023-08-12T01:35:54;8.20;;;6.47;;
438;SDS011;206;48.782;9.252;2023-08-12T01:38:25;8.20;;;6.93;;
438;SDS011;206;48.782;9.252;2023-08-12T01:40:53;9.87;;;7.00;;
438;SDS011;206;48.782;9.252;2023-08-12T01:43:19;7.77;;;6.57;;
438;SDS011;206;48.782;9.252;2023-08-12T01:45:45;7.43;;;6.40;;
438;SDS011;206;48.782;9.252;2023-08-12T01:48:10;7.97;;;7.57;;
438;SDS011;206;48.782;9.252;2023-08-12T01:50:36;7.17;;;6.77;;
438;SDS011;206;48.782;9.252;2023-08-12T01:53:01;11.50;;;7.97;;
438;SDS011;206;48.782;9.252;2023-08-12T01:55:27;7.53;;;7.00;;
438;SDS011;206;48.782;9.252;2023-08-12T01:57:53;7.43;;;7.03;;
438;SDS011;206;48.782;9.252;2023-08-12T02:00:18;10.53;;;7.60;;
438;SDS011;206;48.782;9.252;2023-08-12T02:02:44;11.40;;;8.10;;
438;SDS011;206;48.782;9.252;2023-08-12T02:05:13;9.33;;;7.77;;
438;SDS011;206;48.782;9.252;2023-08-12T02:07:39;9.47;;;7.20;;
438;SDS011;206;48.782;9.252;2023-08-12T02:10:05;8.03;;;7.23;;
438;SDS011;206;48.782;9.252;2023-08-12T02:12:31;7.83;;;6.80;;
438;SDS011;206;48.782;9.252;2023-08-12T02:14:57;15.03;;;7.90;;
438;SDS011;206;48.782;9.252;2023-08-12T02:17:22;9.23;;;7.53;;
438;SDS011;206;48.782;9.252;2023-08-12T02:19:48;7.37;;;6.97;;
438;SDS011;206;48.782;9.252;2023-08-12T02:22:13;9.47;;;8.20;;
438;SDS011;206;48.782;9.252;2023-08-12T02:24:39;7.37;;;6.70;;
438;SDS011;206;48.782;9.252;2023-08-12T02:27:04;6.23;;;5.90;;
438;SDS011;206;48.782;9.252;2023-08-12T02:29:30;7.00;;;6.20;;
438;SDS011;206;48.782;9.252;2023-08-12T02:31:56;10.07;;;7.67;;
438;SDS011;206;48.782;9.252;2023-08-12T02:34:21;11.13;;;7.40;;
438;SDS011;206;48.782;9.252;2023-08-12T02:36:47;9.83;;;7.40;;
438;SDS011;206;48.782;9.252;2023-08-12T02:39:12;7.70;;;6.80;;
438;SDS011;206;48.782;9.252;2023-08-12T02:41:38;6.80;;;6.40;;
438;SDS011;206;48.782;9.252;2023-08-12T02:44:04;8.70;;;7.37;;
438;SDS011;206;48.782;9.252;2023-08-12T02:46:30;9.20;;;7.43;;
438;SDS011;206;48.782;9.252;2023-08-12T02:48:55;11.10;;;8.10;;
438;SDS011;206;48.782;9.252;2023-08-12T02:51:21;10.00;;;7.43;;
438;SDS011;206;48.782;9.252;2023-08-12T02:53:46;8.93;;;7.10;;
438;SDS011;206;48.782;9.252;2023-08-12T02:56:12;9.90;;;8.23;;
438;SDS011;206;48.782;9.252;2023-08-12T02:58:38;8.50;;;8.00;;
438;SDS011;206;48.782;9.252;2023-08-12T03:01:03;13.60;;;9.90;;
438;SDS011;206;48.782;9.252;2023-08-12T03:03:29;11.43;;;8.70;;
438;SDS011;206;48.782;9.252;2023-08-12T03:05:54;13.73;;;8.40;;
438;SDS011;206;48.782;9.252;2023-08-12T03:08:20;10.60;;;8.63;;
438;SDS011;206;48.782;9.252;2023-08-12T03:10:46;8.40;;;6.80;;
438;SDS011;206;48.782;9.252;2023-08-12T03:13:11;7.73;;;7.33;;
438;SDS011;206;48.782;9.252;2023-08-12T03:15:40;13.70;;;6.80;;
438;SDS011;206;48.782;9.252;2023-08-12T03:18:07;10.77;;;7.20;;
438;SDS011;206;48.782;9.252;2023-08-12T03:20:32;7.73;;;7.33;;
438;SDS011;206;48.782;9.252;2023-08-12T03:22:58;8.23;;;6.10;;
438;SDS011;206;48.782;9.252;2023-08-12T03:25:25;8.70;;;6.70;;
438;SDS011;206;48.782;9.252;2023-08-12T03:27:50;7.10;;;6.70;;
438;SDS011;206;48.782;9.252;2023-08-12T03:30:16;7.20;;;6.83;;
438;SDS011;206;48.782;9.252;2023-08-12T03:32:42;9.30;;;7.30;;
438;SDS011;206;48.782;9.252;2023-08-12T03:35:07;8.60;;;7.73;;
438;SDS011;206;48.782;9.252;2023-08-12T03:37:34;10.40;;;7.40;;
438;SDS011;206;48.782;9.252;2023-08-12T03:39:59;10.33;;;6.67;;
438;SDS011;206;48.782;9.252;2023-08-12T03:42:25;10.00;;;7.40;;
438;SDS011;206;48.782;9.252;2023-08-12T03:44:51;7.47;;;6.53;;
438;SDS011;206;48.782;9.252;2023-08-12T03:47:16;9.30;;;6.47;;
438;SDS011;206;48.782;9.252;2023-08-12T03:49:46;9.50;;;6.90;;
438;SDS011;206;48.782;9.252;2023-08-12T03:52:12;6.73;;;6.27;;
438;SDS011;206;48.782;9.252;2023-08-12T03:54:38;7.17;;;6.77;;
438;SDS011;206;48.782;9.252;2023-08-12T03:57:03;7.40;;;6.90;;
438;SDS011;206;48.782;9.252;2023-08-12T03:59:29;10.87;;;6.53;;
438;SDS011;206;48.782;9.252;2023-08-12T04:01:55;12.83;;;6.23;;
438;SDS011;206;48.782;9.252;2023-08-12T04:04:20;6.80;;;6.40;;
438;SDS011;206;48.782;9.252;2023-08-12T04:06:46;7.53;;;6.83;;
438;SDS011;206;48.782;9.252;2023-08-12T04:09:16;8.03;;;6.90;;
438;SDS011;206;48.782;9.252;2023-08-12T04:11:42;7.80;;;7.40;;
438;SDS011;206;48.782;9.252;2023-08-12T04:14:07;7.33;;;6.93;;
438;SDS011;206;48.782;9.252;2023-08-12T04:16:33;7.23;;;6.87;;
438;SDS011;206;48.782;9.252;2023-08-12T04:18:59;7.77;;;6.30;;
438;SDS011;206;48.782;9.252;2023-08-12T04:21:24;8.17;;;6.70;;
438;SDS011;206;48.782;9.252;2023-08-12T04:23:50;10.27;;;7.33;;
438;SDS011;206;48.782;9.252;2023-08-12T04:26:15;10.60;;;6.77;;
438;SDS011;206;48.782;9.252;2023-08-12T04:28:41;6.97;;;6.57;;
438;SDS011;206;48.782;9.252;2023-08-12T04:31:07;12.97;;;6.20;;
438;SDS011;206;48.782;9.252;2023-08-12T04:33:33;7.20;;;6.83;;
438;SDS011;206;48.782;9.252;2023-08-12T04:35:58;6.70;;;6.30;;
438;SDS011;206;48.782;9.252;2023-08-12T04:38:24;6.47;;;6.10;;
438;SDS011;206;48.782;9.252;2023-08-12T04:40:52;6.97;;;6.57;;
438;SDS011;206;48.782;9.252;2023-08-12T04:43:18;12.93;;;6.60;;
438;SDS011;206;48.782;9.252;2023-08-12T04:45:46;7.10;;;5.80;;
438;SDS011;206;48.782;9.252;2023-08-12T04:48:12;9.43;;;6.90;;
438;SDS011;206;48.782;9.252;2023-08-12T04:50:38;6.43;;;6.03;;
438;SDS011;206;48.782;9.252;2023-08-12T04:53:04;7.23;;;6.37;;
438;SDS011;206;48.782;9.252;2023-08-12T04:55:31;8.10;;;6.77;;
438;SDS011;206;48.782;9.252;2023-08-12T04:57:57;6.67;;;6.30;;
438;SDS011;206;48.782;9.252;2023-08-12T05:00:22;14.87;;;6.97;;
438;SDS011;206;48.782;9.252;2023-08-12T05:02:48;6.17;;;5.70;;
438;SDS011;206;48.782;9.252;2023-08-12T05:05:14;6.70;;;5.57;;
438;SDS011;206;48.782;9.252;2023-08-12T05:07:40;8.80;;;6.60;;
438;SDS011;206;48.782;9.252;2023-08-12T05:10:06;11.20;;;7.43;;
438;SDS011;206;48.782;9.252;2023-08-12T05:12:32;8.87;;;7.10;;
438;SDS011;206;48.782;9.252;2023-08-12T05:14:57;6.60;;;5.87;;
438;SDS011;206;48.782;9.252;2023-08-12T05:17:23;8.17;;;6.60;;
438;SDS011;206;48.782;9.252;2023-08-12T05:19:48;10.57;;;7.30;;
438;SDS011;206;48.782;9.252;2023-08-12T05:22:15;9.07;;;6.90;;
438;SDS011;206;48.782;9.252;2023-08-12T05:24:41;8.97;;;7.33;;
438;SDS011;206;48.782;9.252;2023-08-12T05:27:06;14.23;;;5.90;;
438;SDS011;206;48.782;9.252;2023-08-12T05:29:32;15.67;;;6.83;;
438;SDS011;206;48.782;9.252;2023-08-12T05:31:57;6.67;;;6.27;;
438;SDS011;206;48.782;9.252;2023-08-12T05:34:23;7.00;;;5.60;;
438;SDS011;206;48.782;9.252;2023-08-12T05:36:48;6.97;;;5.73;;
438;SDS011;206;48.782;9.252;2023-08-12T05:39:14;5.50;;;5.20;;
438;SDS011;206;48.782;9.252;2023-08-12T05:41:41;9.70;;;6.60;;
438;SDS011;206;48.782;9.252;2023-08-12T05:44:06;7.80;;;6.37;;
438;SDS011;206;48.782;9.252;2023-08-12T05:46:32;7.87;;;5.90;;
438;SDS011;206;48.782;9.252;2023-08-12T05:48:58;8.00;;;7.17;;
438;SDS011;206;48.782;9.252;2023-08-12T05:51:23;7.33;;;6.90;;
438;SDS011;206;48.782;9.252;2023-08-12T05:53:49;7.53;;;6.00;;
438;SDS011;206;48.782;9.252;2023-08-12T05:56:15;7.20;;;6.80;;
438;SDS011;206;48.782;9.252;2023-08-12T05:58:40;8.27;;;6.57;;
438;SDS011;206;48.782;9.252;2023-08-12T06:01:06;7.83;;;7.00;;
438;SDS011;206;48.782;9.252;2023-08-12T06:03:31;6.60;;;6.20;;
438;SDS011;206;48.782;9.252;2023-08-12T06:05:57;7.20;;;6.80;;
438;SDS011;206;48.782;9.252;2023-08-12T06:08:23;7.77;;;6.30;;
438;SDS011;206;48.782;9.252;2023-08-12T06:10:48;7.40;;;7.00;;
438;SDS011;206;48.782;9.252;2023-08-12T06:13:14;8.57;;;6.87;;
438;SDS011;206;48.782;9.252;2023-08-12T06:15:39;9.90;;;6.13;;
438;SDS011;206;48.782;9.252;2023-08-12T06:18:05;8.10;;;6.53;;
438;SDS011;206;48.782;9.252;2023-08-12T06:20:31;7.23;;;5.60;;
438;SDS011;206;48.782;9.252;2023-08-12T06:22:56;9.53;;;6.77;;
438;SDS011;206;48.782;9.252;2023-08-12T06:25:22;6.97;;;6.57;;
438;SDS011;206;48.782;9.252;2023-08-12T06:27:47;8.40;;;6.67;;
438;SDS011;206;48.782;9.252;2023-08-12T06:30:13;7.20;;;6.57;;
438;SDS011;206;48.782;9.252;2023-08-12T06:32:39;9.63;;;7.67;;
438;SDS011;206;48.782;9.252;2023-08-12T06:35:05;8.77;;;7.30;;
438;SDS011;206;48.782;9.252;2023-08-12T06:37:31;7.87;;;7.47;;
438;SDS011;206;48.782;9.252;2023-08-12T06:39:57;8.50;;;6.87;;
438;SDS011;206;48.782;9.252;2023-08-12T06:42:23;7.23;;;6.83;;
438;SDS011;206;48.782;9.252;2023-08-12T06:44:55;7.30;;;6.90;;
438;SDS011;206;48.782;9.252;2023-08-12T06:47:21;6.50;;;6.10;;
438;SDS011;206;48.782;9.252;2023-08-12T06:49:47;8.30;;;7.07;;
438;SDS011;206;48.782;9.252;2023-08-12T06:52:13;9.80;;;6.67;;
438;SDS011;206;48.782;9.252;2023-08-12T06:54:38;8.60;;;6.70;;
438;SDS011;206;48.782;9.252;2023-08-12T06:57:04;9.83;;;6.43;;
438;SDS011;206;48.782;9.252;2023-08-12T06:59:30;7.33;;;5.53;;
438;SDS011;206;48.782;9.252;2023-08-12T07:01:55;8.20;;;6.00;;
438;SDS011;206;48.782;9.252;2023-08-12T07:04:21;6.30;;;5.93;;
438;SDS011;206;48.782;9.252;2023-08-12T07:06:47;6.73;;;6.30;;
438;SDS011;206;48.782;9.252;2023-08-12T07:09:13;10.87;;;5.90;;
438;SDS011;206;48.782;9.252;2023-08-12T07:11:39;8.90;;;5.77;;
438;SDS011;206;48.782;9.252;2023-08-12T07:14:05;6.10;;;5.60;;
438;SDS011;206;48.782;9.252;2023-08-12T07:16:30;9.20;;;6.33;;
438;SDS011;206;48.782;9.252;2023-08-12T07:18:56;7.40;;;6.10;;
438;SDS011;206;48.782;9.252;2023-08-12T07:21:21;6.50;;;5.40;;
438;SDS011;206;48.782;9.252;2023-08-12T07:23:47;7.70;;;5.43;;
438;SDS011;206;48.782;9.252;2023-08-12T07:26:13;6.87;;;6.50;;
438;SDS011;206;48.782;9.252;2023-08-12T07:28:38;6.20;;;5.90;;
438;SDS011;206;48.782;9.252;2023-08-12T07:31:04;5.80;;;4.83;;
438;SDS011;206;48.782;9.252;2023-08-12T07:33:29;6.70;;;5.80;;
438;SDS011;206;48.782;9.252;2023-08-12T07:35:55;5.90;;;5.60;;
438;SDS011;206;48.782;9.252;2023-08-12T07:38:20;6.67;;;6.33;;
438;SDS011;206;48.782;9.252;2023-08-12T07:40:47;8.00;;;4.17;;
438;SDS011;206;48.782;9.252;2023-08-12T07:43:15;5.33;;;5.03;;
438;SDS011;206;48.782;9.252;2023-08-12T07:45:41;6.10;;;5.10;;
438;SDS011;206;48.782;9.252;2023-08-12T07:48:06;8.00;;;5.47;;
438;SDS011;206;48.782;9.252;2023-08-12T07:50:32;6.77;;;5.10;;
438;SDS011;206;48.782;9.252;2023-08-12T07:52:57;4.57;;;4.27;;
438;SDS011;206;48.782;9.252;2023-08-12T07:55:23;4.83;;;4.53;;
438;SDS011;206;48.782;9.252;2023-08-12T07:57:49;7.97;;;5.40;;
438;SDS011;206;48.782;9.252;2023-08-12T08:00:14;10.20;;;5.23;;
438;SDS011;206;48.782;9.252;2023-08-12T08:02:40;5.73;;;5.37;;
438;SDS011;206;48.782;9.252;2023-08-12T08:05:05;11.23;;;5.80;;
438;SDS011;206;48.782;9.252;2023-08-12T08:07:32;7.00;;;4.60;;
438;SDS011;206;48.782;9.252;2023-08-12T08:09:57;7.00;;;5.00;;
438;SDS011;206;48.782;9.252;2023-08-12T08:12:23;5.20;;;4.73;;
438;SDS011;206;48.782;9.252;2023-08-12T08:14:49;5.30;;;5.00;;
438;SDS011;206;48.782;9.252;2023-08-12T08:17:15;6.10;;;4.53;;
438;SDS011;206;48.782;9.252;2023-08-12T08:19:40;5.83;;;4.80;;
438;SDS011;206;48.782;9.252;2023-08-12T08:22:06;9.27;;;5.00;;
438;SDS011;206;48.782;9.252;2023-08-12T08:24:31;6.10;;;5.17;;
438;SDS011;206;48.782;9.252;2023-08-12T08:26:57;5.07;;;4.73;;
438;SDS011;206;48.782;9.252;2023-08-12T08:29:23;4.60;;;4.30;;
438;SDS011;206;48.782;9.252;2023-08-12T08:31:48;4.23;;;3.97;;
438;SDS011;206;48.782;9.252;2023-08-12T08:34:14;5.30;;;5.00;;
438;SDS011;206;48.782;9.252;2023-08-12T08:36:40;6.03;;;5.10;;
438;SDS011;206;48.782;9.252;2023-08-12T08:39:05;4.67;;;4.37;;
438;SDS011;206;48.782;9.252;2023-08-12T08:41:31;6.77;;;4.93;;
438;SDS011;206;48.782;9.252;2023-08-12T08:44:01;9.50;;;5.37;;
438;SDS011;206;48.782;9.252;2023-08-12T08:46:28;5.40;;;5.10;;
438;SDS011;206;48.782;9.252;2023-08-12T08:48:54;5.53;;;4.70;;
438;SDS011;206;48.782;9.252;2023-08-12T08:51:23;4.47;;;4.17;;
438;SDS011;206;48.782;9.252;2023-08-12T08:53:50;5.10;;;4.70;;
438;SDS011;206;48.782;9.252;2023-08-12T08:56:19;11.73;;;5.57;;
438;SDS011;206;48.782;9.252;2023-08-12T08:58:46;4.87;;;4.53;;
438;SDS011;206;48.782;9.252;2023-08-12T09:01:11;4.37;;;4.10;;
438;SDS011;206;48.782;9.252;2023-08-12T09:03:39;4.83;;;4.60;;
438;SDS011;206;48.782;9.252;2023-08-12T09:06:05;7.30;;;5.33;;
438;SDS011;206;48.782;9.252;2023-08-12T09:08:31;5.87;;;4.80;;
438;SDS011;206;48.782;9.252;2023-08-12T09:10:59;5.47;;;4.20;;
438;SDS011;206;48.782;9.252;2023-08-12T09:13:26;4.30;;;4.03;;
438;SDS011;206;48.782;9.252;2023-08-12T09:15:51;7.53;;;5.20;;
438;SDS011;206;48.782;9.252;2023-08-12T09:18:17;5.90;;;4.33;;
438;SDS011;206;48.782;9.252;2023-08-12T09:20:43;3.90;;;3.70;;
438;SDS011;206;48.782;9.252;2023-08-12T09:23:09;5.37;;;4.27;;
438;SDS011;206;48.782;9.252;2023-08-12T09:25:41;4.60;;;4.30;;
438;SDS011;206;48.782;9.252;2023-08-12T09:28:09;7.53;;;4.73;;
438;SDS011;206;48.782;9.252;2023-08-12T09:30:34;5.30;;;4.10;;
438;SDS011;206;48.782;9.252;2023-08-12T09:33:02;5.60;;;4.47;;
438;SDS011;206;48.782;9.252;2023-08-12T09:35:32;4.90;;;4.60;;
438;SDS011;206;48.782;9.252;2023-08-12T09:38:10;6.37;;;3.93;;
438;SDS011;206;48.782;9.252;2023-08-12T09:40:37;10.50;;;4.33;;
438;SDS011;206;48.782;9.252;2023-08-12T09:43:03;4.63;;;4.33;;
438;SDS011;206;48.782;9.252;2023-08-12T09:45:29;8.30;;;4.73;;
438;SDS011;206;48.782;9.252;2023-08-12T09:47:56;3.87;;;3.67;;
438;SDS011;206;48.782;9.252;2023-08-12T09:50:23;4.43;;;3.40;;
438;SDS011;206;48.782;9.252;2023-08-12T09:52:50;8.23;;;4.27;;
438;SDS011;206;48.782;9.252;2023-08-12T09:55:17;4.27;;;4.00;;
438;SDS011;206;48.782;9.252;2023-08-12T09:57:43;3.60;;;3.40;;
438;SDS011;206;48.782;9.252;2023-08-12T10:00:12;6.97;;;3.90;;
438;SDS011;206;48.782;9.252;2023-08-12T10:02:42;4.03;;;3.83;;
438;SDS011;206;48.782;9.252;2023-08-12T10:05:09;3.77;;;3.57;;
438;SDS011;206;48.782;9.252;2023-08-12T10:07:37;4.00;;;3.00;;
438;SDS011;206;48.782;9.252;2023-08-12T10:10:05;6.23;;;3.60;;
438;SDS011;206;48.782;9.252;2023-08-12T10:12:32;3.27;;;3.07;;
438;SDS011;206;48.782;9.252;2023-08-12T10:14:58;5.23;;;3.60;;
438;SDS011;206;48.782;9.252;2023-08-12T10:17:25;4.47;;;4.17;;
438;SDS011;206;48.782;9.252;2023-08-12T10:19:57;3.60;;;3.40;;
438;SDS011;206;48.782;9.252;2023-08-12T10:22:24;3.33;;;3.13;;
438;SDS011;206;48.782;9.252;2023-08-12T10:24:51;5.30;;;2.97;;
438;SDS011;206;48.782;9.252;2023-08-12T10:27:16;11.03;;;4.10;;
438;SDS011;206;48.782;9.252;2023-08-12T10:29:43;3.07;;;2.90;;
438;SDS011;206;48.782;9.252;2023-08-12T10:32:08;5.57;;;3.30;;
438;SDS011;206;48.782;9.252;2023-08-12T10:34:34;3.33;;;3.13;;
438;SDS011;206;48.782;9.252;2023-08-12T10:37:03;2.93;;;2.73;;
438;SDS011;206;48.782;9.252;2023-08-12T10:39:30;5.20;;;2.90;;
438;SDS011;206;48.782;9.252;2023-08-12T10:41:57;4.57;;;3.17;;
438;SDS011;206;48.782;9.252;2023-08-12T10:44:27;4.10;;;2.60;;
438;SDS011;206;48.782;9.252;2023-08-12T10:47:13;3.60;;;3.40;;
438;SDS011;206;48.782;9.252;2023-08-12T10:49:39;5.50;;;3.03;;
438;SDS011;206;48.782;9.252;2023-08-12T10:52:28;4.47;;;4.17;;
438;SDS011;206;48.782;9.252;2023-08-12T10:57:44;4.33;;;3.30;;
438;SDS011;206;48.782;9.252;2023-08-12T11:00:10;4.67;;;3.63;;
438;SDS011;206;48.782;9.252;2023-08-12T11:02:52;3.47;;;2.83;;
438;SDS011;206;48.782;9.252;2023-08-12T11:05:18;3.70;;;3.13;;
438;SDS011;206;48.782;9.252;2023-08-12T11:07:58;3.70;;;3.10;;
438;SDS011;206;48.782;9.252;2023-08-12T11:10:26;4.30;;;3.53;;
438;SDS011;206;48.782;9.252;2023-08-12T11:15:31;3.57;;;3.40;;
438;SDS011;206;48.782;9.252;2023-08-12T11:17:58;5.17;;;3.63;;
438;SDS011;206;48.782;9.252;2023-08-12T11:20:27;2.77;;;2.57;;
438;SDS011;206;48.782;9.252;2023-08-12T11:22:54;5.13;;;3.67;;
438;SDS011;206;48.782;9.252;2023-08-12T11:25:20;3.50;;;3.10;;
438;SDS011;206;48.782;9.252;2023-08-12T11:27:46;3.90;;;3.50;;
438;SDS011;206;48.782;9.252;2023-08-12T11:30:14;4.13;;;3.17;;
438;SDS011;206;48.782;9.252;2023-08-12T11:32:41;3.60;;;3.40;;
438;SDS011;206;48.782;9.252;2023-08-12T11:35:08;4.63;;;3.00;;
438;SDS011;206;48.782;9.252;2023-08-12T11:37:36;3.83;;;3.60;;
438;SDS011;206;48.782;9.252;2023-08-12T11:40:03;3.37;;;3.27;;
438;SDS011;206;48.782;9.252;2023-08-12T11:42:30;4.13;;;2.90;;
438;SDS011;206;48.782;9.252;2023-08-12T11:44:56;8.73;;;3.40;;
438;SDS011;206;48.782;9.252;2023-08-12T11:47:22;3.73;;;3.27;;
438;SDS011;206;48.782;9.252;2023-08-12T11:49:47;3.90;;;3.07;;
438;SDS011;206;48.782;9.252;2023-08-12T11:52:13;3.70;;;3.50;;
438;SDS011;206;48.782;9.252;2023-08-12T11:54:39;4.60;;;3.33;;
438;SDS011;206;48.782;9.252;2023-08-12T11:57:05;3.53;;;3.37;;
438;SDS011;206;48.782;9.252;2023-08-12T11:59:31;4.07;;;3.10;;
438;SDS011;206;48.782;9.252;2023-08-12T12:01:57;4.57;;;3.57;;
438;SDS011;206;48.782;9.252;2023-08-12T12:04:22;6.00;;;3.70;;
438;SDS011;206;48.782;9.252;2023-08-12T12:06:48;14.03;;;4.07;;
438;SDS011;206;48.782;9.252;2023-08-12T12:09:14;6.27;;;3.53;;
438;SDS011;206;48.782;9.252;2023-08-12T12:11:43;5.23;;;3.70;;
438;SDS011;206;48.782;9.252;2023-08-12T12:14:09;3.60;;;2.60;;
438;SDS011;206;48.782;9.252;2023-08-12T12:19:14;2.83;;;2.00;;
438;SDS011;206;48.782;9.252;2023-08-12T12:21:42;6.00;;;2.70;;
438;SDS011;206;48.782;9.252;2023-08-12T12:24:09;3.83;;;2.43;;
438;SDS011;206;48.782;9.252;2023-08-12T12:26:35;8.37;;;3.27;;
438;SDS011;206;48.782;9.252;2023-08-12T12:29:04;4.50;;;3.10;;
438;SDS011;206;48.782;9.252;2023-08-12T12:31:34;11.53;;;3.53;;
438;SDS011;206;48.782;9.252;2023-08-12T12:34:01;4.73;;;2.30;;
438;SDS011;206;48.782;9.252;2023-08-12T12:36:29;5.17;;;2.80;;
438;SDS011;206;48.782;9.252;2023-08-12T12:38:59;4.93;;;2.73;;
438;SDS011;206;48.782;9.252;2023-08-12T12:41:24;3.30;;;2.43;;
438;SDS011;206;48.782;9.252;2023-08-12T12:43:50;6.23;;;2.97;;
438;SDS011;206;48.782;9.252;2023-08-12T12:46:15;4.43;;;2.70;;
438;SDS011;206;48.782;9.252;2023-08-12T12:48:41;3.80;;;2.13;;
438;SDS011;206;48.782;9.252;2023-08-12T12:51:08;9.33;;;3.57;;
438;SDS011;206;48.782;9.252;2023-08-12T12:53:34;4.90;;;3.23;;
438;SDS011;206;48.782;9.252;2023-08-12T12:55:59;3.63;;;2.57;;
438;SDS011;206;48.782;9.252;2023-08-12T12:58:31;3.70;;;2.40;;
438;SDS011;206;48.782;9.252;2023-08-12T13:00:58;4.50;;;2.60;;
438;SDS011;206;48.782;9.252;2023-08-12T13:03:24;4.40;;;3.03;;
438;SDS011;206;48.782;9.252;2023-08-12T13:05:50;4.37;;;2.90;;
438;SDS011;206;48.782;9.252;2023-08-12T13:08:16;5.03;;;3.53;;
438;SDS011;206;48.782;9.252;2023-08-12T13:10:42;3.70;;;3.60;;
438;SDS011;206;48.782;9.252;2023-08-12T13:13:07;4.73;;;2.30;;
438;SDS011;206;48.782;9.252;2023-08-12T13:15:33;3.53;;;3.37;;
438;SDS011;206;48.782;9.252;2023-08-12T13:17:59;4.23;;;3.70;;
438;SDS011;206;48.782;9.252;2023-08-12T13:20:25;4.27;;;3.87;;
438;SDS011;206;48.782;9.252;2023-08-12T13:22:50;4.03;;;3.50;;
438;SDS011;206;48.782;9.252;2023-08-12T13:25:16;3.57;;;3.40;;
438;SDS011;206;48.782;9.252;2023-08-12T13:27:42;4.73;;;3.80;;
438;SDS011;206;48.782;9.252;2023-08-12T13:30:08;4.43;;;3.73;;
438;SDS011;206;48.782;9.252;2023-08-12T13:32:36;7.30;;;3.97;;
438;SDS011;206;48.782;9.252;2023-08-12T13:35:02;4.20;;;3.60;;
438;SDS011;206;48.782;9.252;2023-08-12T13:37:28;9.13;;;4.37;;
438;SDS011;206;48.782;9.252;2023-08-12T13:39:53;4.93;;;3.33;;
438;SDS011;206;48.782;9.252;2023-08-12T13:42:19;3.73;;;3.50;;
438;SDS011;206;48.782;9.252;2023-08-12T13:44:44;4.63;;;3.80;;
438;SDS011;206;48.782;9.252;2023-08-12T13:47:10;5.43;;;4.27;;
438;SDS011;206;48.782;9.252;2023-08-12T13:49:35;5.50;;;4.50;;
438;SDS011;206;48.782;9.252;2023-08-12T13:52:01;9.33;;;4.63;;
438;SDS011;206;48.782;9.252;2023-08-12T13:54:27;10.97;;;9.83;;
438;SDS011;206;48.782;9.252;2023-08-12T13:56:53;4.10;;;3.90;;
438;SDS011;206;48.782;9.252;2023-08-12T13:59:18;4.83;;;4.17;;
438;SDS011;206;48.782;9.252;2023-08-12T14:01:44;4.20;;;3.60;;
438;SDS011;206;48.782;9.252;2023-08-12T14:04:10;5.03;;;4.20;;
438;SDS011;206;48.782;9.252;2023-08-12T14:06:35;4.30;;;3.60;;
438;SDS011;206;48.782;9.252;2023-08-12T14:09:01;4.03;;;3.83;;
438;SDS011;206;48.782;9.252;2023-08-12T14:11:27;6.83;;;4.53;;
438;SDS011;206;48.782;9.252;2023-08-12T14:13:53;4.80;;;3.20;;
438;SDS011;206;48.782;9.252;2023-08-12T14:16:19;5.17;;;3.43;;
438;SDS011;206;48.782;9.252;2023-08-12T14:18:44;4.60;;;4.07;;
438;SDS011;206;48.782;9.252;2023-08-12T14:21:10;4.07;;;3.87;;
438;SDS011;206;48.782;9.252;2023-08-12T14:23:35;8.03;;;3.63;;
438;SDS011;206;48.782;9.252;2023-08-12T14:26:01;4.57;;;4.20;;
438;SDS011;206;48.782;9.252;2023-08-12T14:28:27;11.83;;;4.20;;
438;SDS011;206;48.782;9.252;2023-08-12T14:30:53;4.23;;;3.87;;
438;SDS011;206;48.782;9.252;2023-08-12T14:33:19;7.10;;;4.37;;
438;SDS011;206;48.782;9.252;2023-08-12T14:35:44;5.23;;;4.07;;
438;SDS011;206;48.782;9.252;2023-08-12T14:38:10;5.40;;;3.70;;
438;SDS011;206;48.782;9.252;2023-08-12T14:40:37;7.70;;;4.50;;
438;SDS011;206;48.782;9.252;2023-08-12T14:43:03;5.93;;;4.23;;
438;SDS011;206;48.782;9.252;2023-08-12T14:45:28;7.00;;;4.83;;
438;SDS011;206;48.782;9.252;2023-08-12T14:47:54;4.37;;;3.87;;
438;SDS011;206;48.782;9.252;2023-08-12T14:50:20;3.70;;;3.53;;
438;SDS011;206;48.782;9.252;2023-08-12T14:52:45;5.63;;;4.53;;
438;SDS011;206;48.782;9.252;2023-08-12T14:55:11;5.57;;;3.90;;
438;SDS011;206;48.782;9.252;2023-08-12T14:57:36;4.47;;;3.60;;
438;SDS011;206;48.782;9.252;2023-08-12T15:00:02;4.23;;;3.40;;
438;SDS011;206;48.782;9.252;2023-08-12T15:02:28;3.57;;;3.27;;
438;SDS011;206;48.782;9.252;2023-08-12T15:04:54;5.03;;;3.03;;
438;SDS011;206;48.782;9.252;2023-08-12T15:07:19;10.17;;;3.40;;
438;SDS011;206;48.782;9.252;2023-08-12T15:09:46;2.90;;;2.70;;
438;SDS011;206;48.782;9.252;2023-08-12T15:12:12;3.73;;;3.00;;
438;SDS011;206;48.782;9.252;2023-08-12T15:14:38;3.33;;;2.70;;
438;SDS011;206;48.782;9.252;2023-08-12T15:17:03;4.27;;;3.20;;
438;SDS011;206;48.782;9.252;2023-08-12T15:19:29;3.17;;;3.03;;
438;SDS011;206;48.782;9.252;2023-08-12T15:21:55;5.80;;;3.07;;
438;SDS011;206;48.782;9.252;2023-08-12T15:24:20;4.07;;;2.73;;
438;SDS011;206;48.782;9.252;2023-08-12T15:26:46;4.60;;;2.50;;
438;SDS011;206;48.782;9.252;2023-08-12T15:29:11;2.73;;;2.10;;
438;SDS011;206;48.782;9.252;2023-08-12T15:31:37;8.03;;;2.30;;
438;SDS011;206;48.782;9.252;2023-08-12T15:34:03;2.70;;;2.23;;
438;SDS011;206;48.782;9.252;2023-08-12T15:36:29;3.27;;;3.07;;
438;SDS011;206;48.782;9.252;2023-08-12T15:38:54;4.63;;;2.57;;
438;SDS011;206;48.782;9.252;2023-08-12T15:41:20;3.67;;;2.73;;
438;SDS011;206;48.782;9.252;2023-08-12T15:43:47;2.83;;;2.60;;
438;SDS011;206;48.782;9.252;2023-08-12T15:46:12;3.73;;;2.77;;
438;SDS011;206;48.782;9.252;2023-08-12T15:48:38;5.07;;;3.43;;